Time;durP1;ratioP1;P1;durP2;ratioP2;P2;SDS_P1;SDS_P2;PMS_P1;PMS_P2;Temp;Humidity;BMP_temperature;BMP_pressure;BME280_temperature;BME280_humidity;BME280_pressure;Samples;Min_cycle;Max_cycle;Signal;HPM_P1;HPM_P2
2022/10/17 00:00:52;;;;;;;2.72;2.00;;;;;14.20;94594.00;;;;7391958;19;20125;-74
2022/10/17 00:03:22;;;;;;;5.50;2.10;;;;;14.30;94596.00;;;;7390624;19;20229;-75
2022/10/17 00:05:51;;;;;;;2.67;2.20;;;;;14.30;94596.00;;;;7388547;19;20156;-76
2022/10/17 00:08:25;;;;;;;7.68;2.15;;;;;14.30;94596.00;;;;7391896;19;20140;-74
2022/10/17 00:11:01;;;;;;;6.78;2.10;;;;;14.50;94596.00;;;;7392443;19;20623;-74
2022/10/17 00:13:35;;;;;;;2.58;2.13;;;;;14.50;94591.00;;;;7390816;19;20159;-74
2022/10/17 00:16:12;;;;;;;4.30;2.28;;;;;14.50;94596.00;;;;7397203;19;20477;-75
2022/10/17 00:18:39;;;;;;;4.95;2.10;;;;;14.50;94598.00;;;;7399196;19;20133;-75
2022/10/17 00:21:17;;;;;;;7.65;2.05;;;;;14.50;94603.00;;;;7402311;19;20138;-74
2022/10/17 00:23:46;;;;;;;5.82;2.17;;;;;14.60;94607.00;;;;7398808;19;20167;-73
2022/10/17 00:26:14;;;;;;;2.60;2.08;;;;;14.40;94607.00;;;;7399117;19;20184;-75
2022/10/17 00:28:50;;;;;;;5.18;2.38;;;;;14.50;94613.00;;;;7400729;19;20808;-75
2022/10/17 00:31:21;;;;;;;5.57;2.30;;;;;14.60;94612.00;;;;7396302;19;20278;-75
2022/10/17 00:33:48;;;;;;;3.10;2.03;;;;;14.40;94614.00;;;;7394933;19;20160;-76
2022/10/17 00:36:26;;;;;;;2.47;1.98;;;;;14.30;94607.00;;;;7399414;19;20136;-75
2022/10/17 00:39:00;;;;;;;5.72;2.65;;;;;14.20;94612.00;;;;7399317;19;20167;-75
2022/10/17 00:41:34;;;;;;;4.30;2.10;;;;;14.10;94614.00;;;;7398735;19;20612;-75
2022/10/17 00:44:05;;;;;;;4.22;2.28;;;;;14.20;94606.00;;;;7397380;19;20162;-74
2022/10/17 00:46:35;;;;;;;3.30;2.30;;;;;14.40;94601.00;;;;7395731;19;20226;-75
2022/10/17 00:49:15;;;;;;;3.80;2.33;;;;;14.30;94604.00;;;;7399407;19;20129;-75
2022/10/17 00:51:45;;;;;;;4.10;2.13;;;;;14.50;94609.00;;;;7398511;19;20156;-75
2022/10/17 00:54:24;;;;;;;3.63;2.15;;;;;14.30;94612.00;;;;7396856;19;20460;-74
2022/10/17 00:56:52;;;;;;;3.50;2.35;;;;;14.20;94606.00;;;;7400695;19;20129;-75
2022/10/17 00:59:31;;;;;;;8.00;2.40;;;;;14.10;94613.00;;;;7400453;19;20139;-74
2022/10/17 01:02:03;;;;;;;6.80;2.00;;;;;14.10;94613.00;;;;7397846;19;20208;-74
2022/10/17 01:04:40;;;;;;;8.32;2.55;;;;;14.20;94620.00;;;;7399750;19;20136;-74
2022/10/17 01:07:09;;;;;;;7.20;2.45;;;;;14.00;94616.00;;;;7398802;19;20178;-74
2022/10/17 01:09:37;;;;;;;5.40;2.00;;;;;14.30;94615.00;;;;7397868;19;20132;-75
2022/10/17 01:12:19;;;;;;;2.35;1.98;;;;;13.90;94622.00;;;;7398633;19;20136;-74
2022/10/17 01:15:12;;;;;;;8.13;2.38;;;;;14.00;94617.00;;;;7399284;19;20133;-74
2022/10/17 01:17:55;;;;;;;6.97;2.50;;;;;14.10;94621.00;;;;7399085;19;20905;-75
2022/10/17 01:20:44;;;;;;;5.05;2.28;;;;;14.20;94625.00;;;;7395736;19;20852;-75
2022/10/17 01:23:36;;;;;;;5.43;2.42;;;;;14.40;94615.00;;;;7396215;19;20607;-76
2022/10/17 01:26:30;;;;;;;11.45;2.72;;;;;14.50;94628.00;;;;7393565;19;20144;-75
2022/10/17 01:29:40;;;;;;;5.70;2.15;;;;;14.60;94622.00;;;;7397463;19;20166;-75
2022/10/17 01:32:27;;;;;;;5.35;2.25;;;;;14.60;94624.00;;;;7395276;19;20156;-74
2022/10/17 01:35:23;;;;;;;3.90;2.50;;;;;14.20;94623.00;;;;7397351;19;20137;-75
2022/10/17 01:38:17;;;;;;;12.25;2.55;;;;;13.80;94630.00;;;;7395473;19;20614;-74
2022/10/17 01:41:17;;;;;;;4.43;2.28;;;;;13.50;94638.00;;;;7396151;19;20196;-76
2022/10/17 01:43:54;;;;;;;3.17;2.28;;;;;13.60;94624.00;;;;7395884;19;20768;-75
2022/10/17 01:46:33;;;;;;;3.10;2.40;;;;;13.50;94621.00;;;;7395263;19;20504;-75
2022/10/17 01:49:03;;;;;;;4.78;2.60;;;;;13.30;94623.00;;;;7397702;19;20637;-74
2022/10/17 01:52:12;;;;;;;5.22;2.38;;;;;13.40;94620.00;;;;7396074;19;20152;-76
2022/10/17 01:54:47;;;;;;;5.97;2.58;;;;;13.50;94628.00;;;;7392550;19;20160;-76
2022/10/17 01:57:32;;;;;;;5.65;2.60;;;;;13.40;94623.00;;;;7395701;19;20141;-74
2022/10/17 02:00:01;;;;;;;3.90;2.53;;;;;13.40;94622.00;;;;7398168;19;20200;-75
2022/10/17 02:02:36;;;;;;;4.05;2.53;;;;;13.50;94624.00;;;;7397007;19;20140;-74
2022/10/17 02:05:04;;;;;;;7.68;3.00;;;;;13.30;94623.00;;;;7393241;19;20144;-75
2022/10/17 02:07:31;;;;;;;7.05;2.75;;;;;13.40;94615.00;;;;7395933;19;20214;-75
2022/10/17 02:10:17;;;;;;;4.00;3.08;;;;;13.30;94608.00;;;;7396108;19;20584;-76
2022/10/17 02:12:53;;;;;;;4.32;2.55;;;;;13.50;94615.00;;;;7396604;19;20627;-74
2022/10/17 02:15:53;;;;;;;5.60;2.92;;;;;13.50;94609.00;;;;7397612;19;20463;-76
2022/10/17 02:18:46;;;;;;;4.03;2.88;;;;;13.70;94614.00;;;;7397299;19;20141;-74
2022/10/17 02:21:30;;;;;;;4.68;2.42;;;;;13.70;94609.00;;;;7399886;19;20147;-74
2022/10/17 02:24:29;;;;;;;2.65;2.20;;;;;13.90;94611.00;;;;7400119;19;20627;-74
2022/10/17 02:27:24;;;;;;;3.50;2.70;;;;;13.90;94616.00;;;;7402133;19;20583;-74
2022/10/17 02:30:07;;;;;;;7.22;2.78;;;;;13.80;94607.00;;;;7400252;19;20535;-74
2022/10/17 02:33:00;;;;;;;9.35;2.85;;;;;13.80;94617.00;;;;7400305;19;20117;-77
2022/10/17 02:35:34;;;;;;;2.38;2.17;;;;;13.60;94612.00;;;;7396438;19;20139;-75
2022/10/17 02:38:16;;;;;;;8.68;2.63;;;;;13.60;94620.00;;;;7394914;19;20236;-75
2022/10/17 02:40:52;;;;;;;10.13;2.92;;;;;13.40;94616.00;;;;7399357;19;20133;-76
2022/10/17 02:43:26;;;;;;;7.25;3.10;;;;;13.30;94614.00;;;;7398844;19;20588;-75
2022/10/17 02:45:55;;;;;;;4.88;2.92;;;;;13.20;94616.00;;;;7398399;19;20153;-75
2022/10/17 02:48:47;;;;;;;7.70;3.10;;;;;13.10;94621.00;;;;7396037;19;20127;-74
2022/10/17 02:51:43;;;;;;;4.22;2.70;;;;;13.20;94613.00;;;;7397352;19;20538;-75
2022/10/17 02:54:33;;;;;;;6.43;2.85;;;;;13.40;94614.00;;;;7394834;19;20153;-76
2022/10/17 02:57:12;;;;;;;5.53;2.80;;;;;13.80;94612.00;;;;7393154;19;20507;-76
2022/10/17 02:59:47;;;;;;;7.60;2.67;;;;;14.00;94616.00;;;;7393298;19;20612;-74
2022/10/17 03:02:22;;;;;;;5.10;2.60;;;;;14.10;94619.00;;;;7396981;19;20154;-75
2022/10/17 03:04:49;;;;;;;5.95;2.90;;;;;13.80;94618.00;;;;7394629;19;20163;-76
2022/10/17 03:07:16;;;;;;;8.38;3.05;;;;;13.90;94617.00;;;;7395838;19;20156;-74
2022/10/17 03:09:53;;;;;;;9.75;2.70;;;;;13.80;94618.00;;;;7394250;19;20153;-74
2022/10/17 03:12:20;;;;;;;5.97;2.70;;;;;13.90;94615.00;;;;7392349;19;20261;-75
2022/10/17 03:14:48;;;;;;;9.50;2.55;;;;;13.90;94617.00;;;;7392269;19;20778;-74
2022/10/17 03:17:22;;;;;;;6.13;2.20;;;;;13.80;94618.00;;;;7391407;19;20144;-74
2022/10/17 03:19:49;;;;;;;4.55;2.78;;;;;13.60;94617.00;;;;7391419;19;20129;-76
2022/10/17 03:22:16;;;;;;;2.95;2.58;;;;;13.50;94615.00;;;;7393583;19;20129;-75
2022/10/17 03:24:50;;;;;;;10.68;2.80;;;;;13.50;94623.00;;;;7394616;19;20140;-75
2022/10/17 03:27:20;;;;;;;9.73;2.92;;;;;13.30;94631.00;;;;7393333;19;20520;-75
2022/10/17 03:29:48;;;;;;;9.75;2.90;;;;;13.40;94623.00;;;;7390524;19;20200;-75
2022/10/17 03:32:26;;;;;;;9.48;3.03;;;;;13.50;94615.00;;;;7396025;19;20186;-76
2022/10/17 03:34:53;;;;;;;4.75;2.60;;;;;13.30;94614.00;;;;7392185;19;20160;-75
2022/10/17 03:37:23;;;;;;;5.22;2.60;;;;;13.30;94620.00;;;;7391982;19;20611;-75
2022/10/17 03:40:04;;;;;;;2.80;2.60;;;;;13.30;94620.00;;;;7389826;19;20207;-75
2022/10/17 03:42:32;;;;;;;7.75;4.97;;;;;13.40;94622.00;;;;7393405;19;20501;-76
2022/10/17 03:45:06;;;;;;;9.88;3.17;;;;;13.40;94624.00;;;;7392912;19;20152;-75
2022/10/17 03:47:33;;;;;;;7.43;3.22;;;;;13.40;94630.00;;;;7391901;19;20475;-75
2022/10/17 03:50:01;;;;;;;3.55;2.70;;;;;13.40;94629.00;;;;7394048;19;20121;-76
2022/10/17 03:52:35;;;;;;;9.82;3.30;;;;;13.60;94635.00;;;;7396538;19;20187;-74
2022/10/17 03:55:07;;;;;;;4.93;2.72;;;;;13.70;94625.00;;;;7398340;19;20232;-75
2022/10/17 03:57:42;;;;;;;5.05;2.80;;;;;13.80;94638.00;;;;7401502;19;20144;-74
2022/10/17 04:00:16;;;;;;;5.97;2.38;;;;;13.70;94641.00;;;;7400664;19;20611;-75
2022/10/17 04:02:43;;;;;;;4.78;2.83;;;;;13.50;94641.00;;;;7400553;19;20750;-74
2022/10/17 04:05:11;;;;;;;4.97;2.40;;;;;13.50;94653.00;;;;7402140;19;20166;-74
2022/10/17 04:07:45;;;;;;;3.65;2.35;;;;;13.50;94654.00;;;;7399553;19;20144;-75
2022/10/17 04:10:12;;;;;;;7.70;2.60;;;;;13.40;94658.00;;;;7402091;19;20139;-75
2022/10/17 04:12:39;;;;;;;9.57;2.58;;;;;13.20;94661.00;;;;7398755;19;20164;-75
2022/10/17 04:15:14;;;;;;;14.40;3.53;;;;;12.90;94662.00;;;;7398801;19;20140;-75
2022/10/17 04:17:44;;;;;;;5.10;3.03;;;;;12.90;94667.00;;;;7400339;19;20145;-75
2022/10/17 04:20:15;;;;;;;6.97;2.78;;;;;12.90;94666.00;;;;7397513;19;20195;-75
2022/10/17 04:22:50;;;;;;;7.88;3.10;;;;;12.70;94665.00;;;;7400866;19;20154;-76
2022/10/17 04:25:19;;;;;;;8.05;2.85;;;;;12.80;94670.00;;;;7399739;19;20166;-74
2022/10/17 04:27:50;;;;;;;9.23;3.25;;;;;12.90;94664.00;;;;7400674;19;20161;-74
2022/10/17 04:30:24;;;;;;;7.68;3.20;;;;;13.00;94670.00;;;;7398785;19;20156;-75
2022/10/17 04:32:56;;;;;;;5.72;3.03;;;;;13.20;94670.00;;;;7398396;19;20165;-75
2022/10/17 04:35:25;;;;;;;7.80;3.05;;;;;13.30;94663.00;;;;7397837;19;20133;-76
2022/10/17 04:38:13;;;;;;;9.00;2.83;;;;;13.10;94663.00;;;;7398093;19;20164;-76
2022/10/17 04:41:03;;;;;;;7.97;3.10;;;;;13.20;94656.00;;;;7397973;19;20178;-75
2022/10/17 04:43:44;;;;;;;5.45;2.67;;;;;13.60;94660.00;;;;7396107;19;20140;-74
2022/10/17 04:46:17;;;;;;;7.88;2.80;;;;;13.70;94656.00;;;;7396628;19;20135;-74
2022/10/17 04:48:52;;;;;;;10.45;2.58;;;;;13.60;94659.00;;;;7398472;19;20155;-75
2022/10/17 04:51:20;;;;;;;7.45;2.97;;;;;13.70;94654.00;;;;7395418;19;20176;-74
2022/10/17 04:53:52;;;;;;;7.53;2.50;;;;;13.60;94657.00;;;;7395875;19;20216;-74
2022/10/17 04:56:26;;;;;;;5.20;2.58;;;;;13.60;94654.00;;;;7397569;19;20160;-74
2022/10/17 04:58:54;;;;;;;4.25;2.85;;;;;13.50;94659.00;;;;7399883;19;20600;-74
2022/10/17 05:01:24;;;;;;;6.25;2.53;;;;;13.50;94659.00;;;;7398637;19;20229;-75
2022/10/17 05:03:57;;;;;;;7.40;2.63;;;;;13.60;94659.00;;;;7401561;19;20482;-75
2022/10/17 05:06:29;;;;;;;5.22;2.55;;;;;13.60;94659.00;;;;7400470;19;20216;-75
2022/10/17 05:08:57;;;;;;;3.80;2.40;;;;;13.60;94657.00;;;;7401343;19;20623;-74
2022/10/17 05:11:31;;;;;;;5.38;2.20;;;;;13.60;94666.00;;;;7401749;19;20148;-74
2022/10/17 05:14:00;;;;;;;11.15;2.42;;;;;13.60;94662.00;;;;7396383;19;20155;-75
2022/10/17 05:16:29;;;;;;;5.05;2.53;;;;;13.80;94665.00;;;;7398467;19;20133;-74
2022/10/17 05:19:03;;;;;;;3.25;2.00;;;;;13.80;94658.00;;;;7398577;19;20128;-75
2022/10/17 05:21:31;;;;;;;7.00;2.63;;;;;13.70;94661.00;;;;7393993;19;20171;-74
2022/10/17 05:24:18;;;;;;;3.67;2.20;;;;;13.80;94665.00;;;;7391680;19;20152;-76
2022/10/17 05:26:52;;;;;;;5.03;2.40;;;;;13.90;94664.00;;;;7397570;19;20132;-75
2022/10/17 05:29:20;;;;;;;5.72;2.38;;;;;14.10;94658.00;;;;7392457;19;20125;-77
2022/10/17 05:31:49;;;;;;;3.10;2.47;;;;;14.00;94656.00;;;;7395358;19;20737;-77
2022/10/17 05:34:23;;;;;;;10.60;2.88;;;;;13.90;94666.00;;;;7394798;19;20148;-76
2022/10/17 05:36:53;;;;;;;5.65;2.83;;;;;13.90;94673.00;;;;7396448;19;20587;-76
2022/10/17 05:39:22;;;;;;;4.30;2.30;;;;;13.80;94678.00;;;;7395870;19;20646;-75
2022/10/17 05:41:55;;;;;;;9.40;2.60;;;;;13.90;94682.00;;;;7395480;19;20159;-77
2022/10/17 05:44:23;;;;;;;7.15;2.60;;;;;14.00;94677.00;;;;7394612;19;20133;-76
2022/10/17 05:46:50;;;;;;;4.10;2.50;;;;;13.90;94680.00;;;;7392330;19;20143;-75
2022/10/17 05:49:24;;;;;;;8.93;3.08;;;;;13.90;94677.00;;;;7394241;19;20147;-76
2022/10/17 05:52:10;;;;;;;5.72;2.40;;;;;13.90;94688.00;;;;7393845;19;20152;-75
2022/10/17 05:54:43;;;;;;;3.10;2.80;;;;;13.90;94676.00;;;;7391401;19;20185;-76
2022/10/17 05:57:11;;;;;;;6.53;2.50;;;;;13.80;94691.00;;;;7396106;19;20133;-75
2022/10/17 05:59:38;;;;;;;4.35;2.58;;;;;13.70;94694.00;;;;7394088;19;20141;-75
2022/10/17 06:02:15;;;;;;;4.78;2.40;;;;;13.70;94694.00;;;;7393399;19;20148;-75
2022/10/17 06:04:44;;;;;;;8.27;2.55;;;;;13.90;94682.00;;;;7394521;19;20129;-74
2022/10/17 06:07:12;;;;;;;7.10;2.72;;;;;14.30;94695.00;;;;7396079;19;20173;-75
2022/10/17 06:09:46;;;;;;;5.13;2.30;;;;;14.80;94688.00;;;;7394291;19;20159;-74
2022/10/17 06:12:14;;;;;;;5.25;2.45;;;;;15.00;94693.00;;;;7395476;19;20137;-74
2022/10/17 06:14:41;;;;;;;3.67;2.25;;;;;15.30;94692.00;;;;7395122;19;20608;-74
2022/10/17 06:17:18;;;;;;;5.38;2.38;;;;;15.30;94692.00;;;;7397240;19;20145;-75
2022/10/17 06:19:45;;;;;;;5.78;2.50;;;;;15.30;94695.00;;;;7395257;19;20144;-74
2022/10/17 06:22:17;;;;;;;5.82;2.33;;;;;15.10;94704.00;;;;7394567;19;20211;-75
2022/10/17 06:24:56;;;;;;;5.10;2.35;;;;;15.30;94701.00;;;;7396981;19;20231;-74
2022/10/17 06:27:23;;;;;;;4.45;2.17;;;;;15.50;94708.00;;;;7395456;19;20204;-74
2022/10/17 06:29:53;;;;;;;6.60;2.42;;;;;15.50;94712.00;;;;7399865;19;20137;-73
2022/10/17 06:32:27;;;;;;;5.82;2.35;;;;;15.50;94708.00;;;;7398407;19;20155;-74
2022/10/17 06:35:11;;;;;;;5.82;2.10;;;;;15.70;94720.00;;;;7398568;19;20477;-74
2022/10/17 06:37:52;;;;;;;5.10;2.40;;;;;15.90;94716.00;;;;7394869;19;20144;-76
2022/10/17 06:40:26;;;;;;;5.93;2.20;;;;;16.20;94725.00;;;;7393831;19;20172;-76
2022/10/17 06:43:01;;;;;;;3.22;2.05;;;;;16.40;94728.00;;;;7399223;19;20464;-76
2022/10/17 06:45:28;;;;;;;8.38;2.17;;;;;16.80;94725.00;;;;7397298;19;20157;-75
2022/10/17 06:47:55;;;;;;;5.07;2.08;;;;;17.00;94725.00;;;;7394676;19;20137;-77
2022/10/17 06:50:29;;;;;;;7.38;2.13;;;;;17.30;94734.00;;;;7397057;19;20513;-75
2022/10/17 06:52:57;;;;;;;7.82;2.45;;;;;17.40;94737.00;;;;7394547;19;20482;-77
2022/10/17 06:55:24;;;;;;;4.13;2.13;;;;;17.50;94737.00;;;;7396356;19;20221;-75
2022/10/17 06:57:58;;;;;;;5.70;1.90;;;;;17.70;94739.00;;;;7397255;19;20139;-75
2022/10/17 07:00:26;;;;;;;3.45;1.92;;;;;18.00;94739.00;;;;7394602;19;20145;-75
2022/10/17 07:02:57;;;;;;;4.05;2.03;;;;;18.30;94741.00;;;;7396875;19;20140;-75
2022/10/17 07:05:34;;;;;;;3.22;2.35;;;;;18.50;94742.00;;;;7395026;19;20611;-76
2022/10/17 07:08:03;;;;;;;3.80;1.83;;;;;18.60;94740.00;;;;7394694;19;20765;-75
2022/10/17 07:10:38;;;;;;;2.85;1.85;;;;;18.80;94747.00;;;;7391874;19;20144;-76
2022/10/17 07:13:09;;;;;;;3.63;1.75;;;;;19.10;94750.00;;;;7396080;19;20139;-75
2022/10/17 07:15:38;;;;;;;3.00;1.60;;;;;19.40;94743.00;;;;7390869;19;20148;-74
2022/10/17 07:18:12;;;;;;;5.38;1.73;;;;;19.60;94742.00;;;;7392584;19;20132;-75
2022/10/17 07:20:51;;;;;;;3.63;1.70;;;;;19.50;94755.00;;;;7392354;19;20158;-75
2022/10/17 07:23:24;;;;;;;4.63;1.85;;;;;19.60;94753.00;;;;7388598;19;20160;-76
2022/10/17 07:25:52;;;;;;;4.00;1.75;;;;;19.80;94766.00;;;;7390530;19;20613;-76
2022/10/17 07:28:19;;;;;;;4.45;2.10;;;;;19.70;94772.00;;;;7391929;19;20156;-75
2022/10/17 07:30:54;;;;;;;5.88;1.90;;;;;19.80;94765.00;;;;7390193;19;20135;-75
2022/10/17 07:33:23;;;;;;;4.20;1.90;;;;;19.90;94775.00;;;;7388646;19;20137;-75
2022/10/17 07:35:53;;;;;;;5.00;2.45;;;;;19.90;94779.00;;;;7391270;19;20170;-75
2022/10/17 07:38:33;;;;;;;4.35;1.88;;;;;20.10;94770.00;;;;7388071;19;20141;-77
2022/10/17 07:41:10;;;;;;;3.70;2.10;;;;;20.30;94774.00;;;;7388452;19;20213;-75
2022/10/17 07:43:50;;;;;;;3.30;1.65;;;;;20.70;94779.00;;;;7383297;19;20164;-75
2022/10/17 07:46:18;;;;;;;4.38;1.77;;;;;20.90;94767.00;;;;7384215;19;20152;-75
2022/10/17 07:48:50;;;;;;;4.60;1.75;;;;;20.90;94782.00;;;;7386745;19;20183;-74
2022/10/17 07:51:28;;;;;;;4.60;1.50;;;;;21.20;94781.00;;;;7382685;19;20204;-76
2022/10/17 07:53:57;;;;;;;4.45;1.55;;;;;21.40;94769.00;;;;7392779;19;20121;-76
2022/10/17 07:56:25;;;;;;;5.97;1.80;;;;;21.40;94779.00;;;;7390340;19;20220;-77
2022/10/17 07:59:04;;;;;;;1.92;1.50;;;;;21.50;94780.00;;;;7392007;19;20203;-74
2022/10/17 08:01:38;;;;;;;1.80;1.50;;;;;21.50;94785.00;;;;7392023;19;20608;-75
2022/10/17 08:04:15;;;;;;;1.73;1.20;;;;;21.40;94779.00;;;;7391032;19;20149;-75
2022/10/17 08:06:45;;;;;;;3.75;1.80;;;;;21.50;94786.00;;;;7389515;19;20807;-74
2022/10/17 08:09:15;;;;;;;2.45;1.30;;;;;21.70;94784.00;;;;7389577;19;20655;-75
2022/10/17 08:11:50;;;;;;;3.00;1.40;;;;;22.00;94790.00;;;;7392292;19;20276;-76
2022/10/17 08:14:17;;;;;;;1.95;1.42;;;;;22.50;94782.00;;;;7390554;19;20144;-75
2022/10/17 08:16:47;;;;;;;2.00;1.42;;;;;22.70;94779.00;;;;7387580;19;20160;-75
2022/10/17 08:19:22;;;;;;;3.15;1.50;;;;;22.60;94792.00;;;;7393143;19;20129;-73
2022/10/17 08:21:50;;;;;;;5.03;1.65;;;;;22.60;94791.00;;;;7391981;19;20205;-75
2022/10/17 08:24:18;;;;;;;1.67;1.40;;;;;22.50;94786.00;;;;7386876;19;20152;-76
2022/10/17 08:26:52;;;;;;;4.05;1.42;;;;;22.50;94796.00;;;;7389962;19;20131;-74
2022/10/17 08:29:19;;;;;;;2.58;1.50;;;;;22.60;94797.00;;;;7389380;19;20200;-74
2022/10/17 08:31:52;;;;;;;4.55;1.50;;;;;22.90;94791.00;;;;7389733;19;20164;-75
2022/10/17 08:34:29;;;;;;;3.20;1.58;;;;;23.40;94790.00;;;;7387616;19;20152;-74
2022/10/17 08:36:56;;;;;;;3.13;1.42;;;;;23.20;94796.00;;;;7395496;19;20149;-74
2022/10/17 08:39:24;;;;;;;2.45;1.50;;;;;23.20;94800.00;;;;7393539;19;20177;-74
2022/10/17 08:42:42;;;;;;;1.92;1.25;;;;;23.40;94794.00;;;;7395543;19;20171;-73
2022/10/17 08:45:09;;;;;;;1.60;1.40;;;;;23.40;94800.00;;;;7397453;19;20200;-73
2022/10/17 08:47:59;;;;;;;3.15;1.30;;;;;23.30;94808.00;;;;7398112;19;20140;-75
2022/10/17 08:50:47;;;;;;;4.32;1.65;;;;;23.30;94807.00;;;;7396558;19;20157;-75
2022/10/17 08:53:53;;;;;;;2.60;1.52;;;;;23.50;94805.00;;;;7395689;19;20124;-76
2022/10/17 08:56:32;;;;;;;6.10;1.50;;;;;23.90;94805.00;;;;7396573;19;20137;-74
2022/10/17 08:59:29;;;;;;;1.67;1.58;;;;;23.40;94803.00;;;;7397022;19;20208;-77
2022/10/17 09:02:13;;;;;;;4.50;1.60;;;;;23.20;94814.00;;;;7396558;19;20132;-75
2022/10/17 09:05:08;;;;;;;3.35;1.60;;;;;23.30;94815.00;;;;7397962;19;20662;-75
2022/10/17 09:08:03;;;;;;;2.88;1.48;;;;;23.60;94818.00;;;;7397704;19;20168;-76
2022/10/17 09:10:39;;;;;;;3.85;1.75;;;;;23.50;94809.00;;;;7397682;19;20155;-74
2022/10/17 09:13:28;;;;;;;2.45;1.98;;;;;23.80;94811.00;;;;7398274;19;20167;-75
2022/10/17 09:16:06;;;;;;;2.22;1.67;;;;;24.10;94814.00;;;;7397241;19;20144;-76
2022/10/17 09:18:39;;;;;;;5.68;2.15;;;;;24.00;94807.00;;;;7400405;19;20129;-75
2022/10/17 09:21:26;;;;;;;2.78;1.85;;;;;24.00;94811.00;;;;7399810;19;20172;-76
2022/10/17 09:24:01;;;;;;;4.28;2.03;;;;;24.30;94815.00;;;;7395225;19;20172;-76
2022/10/17 09:26:46;;;;;;;3.05;1.92;;;;;24.40;94808.00;;;;7394446;19;20165;-75
2022/10/17 09:29:23;;;;;;;5.07;2.00;;;;;24.80;94811.00;;;;7397144;19;20541;-73
2022/10/17 09:32:19;;;;;;;6.55;2.67;;;;;25.10;94803.00;;;;7395130;19;20507;-75
2022/10/17 09:34:47;;;;;;;4.82;1.80;;;;;25.00;94798.00;;;;7396722;19;20231;-74
2022/10/17 09:37:28;;;;;;;3.95;2.08;;;;;25.00;94802.00;;;;7393577;19;20128;-76
2022/10/17 09:40:05;;;;;;;5.43;1.48;;;;;24.90;94806.00;;;;7393993;19;20153;-76
2022/10/17 09:42:50;;;;;;;3.25;1.70;;;;;24.90;94798.00;;;;7395445;19;20208;-75
2022/10/17 09:45:26;;;;;;;6.10;1.50;;;;;24.90;94790.00;;;;7395566;19;20138;-76
2022/10/17 09:48:47;;;;;;;5.13;1.60;;;;;25.00;94788.00;;;;7393545;19;20160;-73
2022/10/17 09:51:22;;;;;;;6.60;1.65;;;;;25.30;94800.00;;;;7394446;19;20184;-75
2022/10/17 09:54:01;;;;;;;2.20;1.50;;;;;25.50;94801.00;;;;7393722;19;20215;-74
2022/10/17 09:56:29;;;;;;;5.85;1.60;;;;;25.90;94807.00;;;;7391451;19;20616;-75
2022/10/17 09:59:03;;;;;;;2.38;1.33;;;;;26.30;94809.00;;;;7394001;19;20201;-73
2022/10/17 10:01:31;;;;;;;3.20;1.50;;;;;26.20;94819.00;;;;7394707;19;20148;-74
2022/10/17 10:04:16;;;;;;;10.55;1.70;;;;;26.00;94810.00;;;;7396061;19;20125;-73
2022/10/17 10:07:11;;;;;;;4.82;1.55;;;;;26.40;94808.00;;;;7394599;19;20145;-75
2022/10/17 10:09:38;;;;;;;5.93;1.70;;;;;26.30;94809.00;;;;7392614;19;20125;-75
2022/10/17 10:12:20;;;;;;;3.15;1.40;;;;;26.80;94816.00;;;;7395252;19;20156;-75
2022/10/17 10:14:49;;;;;;;3.65;1.70;;;;;26.50;94819.00;;;;7395413;19;20141;-76
2022/10/17 10:17:41;;;;;;;5.20;1.45;;;;;26.00;94812.00;;;;7388352;19;20551;-76
2022/10/17 10:20:29;;;;;;;1.85;1.35;;;;;26.20;94818.00;;;;7395922;19;20148;-75
2022/10/17 10:23:19;;;;;;;3.25;1.52;;;;;26.30;94824.00;;;;7397688;19;20137;-75
2022/10/17 10:26:10;;;;;;;3.63;1.58;;;;;25.90;94817.00;;;;7396052;19;20152;-75
2022/10/17 10:28:59;;;;;;;2.58;1.67;;;;;25.70;94832.00;;;;7398184;19;20137;-74
2022/10/17 10:31:37;;;;;;;3.75;1.40;;;;;26.10;94824.00;;;;7395168;19;20148;-76
2022/10/17 10:34:27;;;;;;;3.60;1.35;;;;;25.90;94836.00;;;;7396717;19;20555;-75
2022/10/17 10:37:27;;;;;;;5.70;1.40;;;;;26.30;94831.00;;;;7398430;19;20140;-76
2022/10/17 10:40:28;;;;;;;3.28;1.60;;;;;25.80;94844.00;;;;7398245;19;20165;-77
2022/10/17 10:43:04;;;;;;;2.50;1.23;;;;;25.70;94836.00;;;;7399478;19;20129;-74
2022/10/17 10:45:41;;;;;;;5.50;1.75;;;;;26.10;94832.00;;;;7395175;19;20136;-74
2022/10/17 10:48:50;;;;;;;7.57;1.90;;;;;26.40;94840.00;;;;7398032;19;20124;-74
2022/10/17 10:51:41;;;;;;;5.15;1.73;;;;;26.80;94837.00;;;;7395899;19;20622;-74
2022/10/17 10:54:24;;;;;;;3.15;1.73;;;;;26.90;94831.00;;;;7398545;19;20144;-76
2022/10/17 10:57:05;;;;;;;4.78;1.83;;;;;26.80;94836.00;;;;7397781;19;20151;-79
2022/10/17 10:59:47;;;;;;;3.08;1.40;;;;;26.60;94839.00;;;;7395449;19;20129;-78
2022/10/17 11:02:54;;;;;;;4.45;1.98;;;;;27.20;94831.00;;;;7394121;19;20591;-76
2022/10/17 11:05:50;;;;;;;3.05;1.30;;;;;27.30;94836.00;;;;7396812;19;20188;-78
2022/10/17 11:08:47;;;;;;;6.03;1.58;;;;;27.00;94846.00;;;;7394250;19;20163;-75
2022/10/17 11:11:44;;;;;;;8.43;1.50;;;;;26.90;94844.00;;;;7397325;19;20141;-77
2022/10/17 11:15:08;;;;;;;2.58;1.38;;;;;26.80;94842.00;;;;7393059;19;20980;-76
2022/10/17 11:17:55;;;;;;;4.03;1.38;;;;;26.60;94831.00;;;;7390388;19;20169;-75
2022/10/17 11:20:32;;;;;;;2.50;1.38;;;;;26.90;94831.00;;;;7394798;19;20165;-74
2022/10/17 11:23:41;;;;;;;3.92;1.52;;;;;26.70;94834.00;;;;7393188;19;20148;-76
2022/10/17 11:26:33;;;;;;;5.68;1.40;;;;;26.60;94856.00;;;;7390360;19;20148;-75
2022/10/17 11:29:03;;;;;;;4.03;1.48;;;;;26.40;94857.00;;;;7391622;19;20139;-75
2022/10/17 11:31:49;;;;;;;4.15;1.30;;;;;25.70;94859.00;;;;7391645;19;20648;-76
2022/10/17 11:34:24;;;;;;;3.25;1.60;;;;;25.20;94876.00;;;;7390782;19;20151;-75
2022/10/17 11:37:05;;;;;;;6.35;1.60;;;;;25.00;94865.00;;;;7393267;19;20174;-74
2022/10/17 11:39:51;;;;;;;4.38;1.50;;;;;25.50;94869.00;;;;7389300;19;20544;-75
2022/10/17 11:42:34;;;;;;;2.50;1.30;;;;;25.40;94868.00;;;;7389568;19;20216;-74
2022/10/17 11:45:08;;;;;;;3.28;1.45;;;;;24.80;94871.00;;;;7389748;19;20168;-74
2022/10/17 11:47:47;;;;;;;1.65;1.20;;;;;24.40;94876.00;;;;7389333;19;20139;-75
2022/10/17 11:50:33;;;;;;;3.42;1.75;;;;;24.30;94864.00;;;;7388794;19;20158;-75
2022/10/17 11:53:33;;;;;;;4.78;1.60;;;;;25.20;94864.00;;;;7389889;19;20500;-74
2022/10/17 11:56:01;;;;;;;1.80;1.20;;;;;26.20;94866.00;;;;7387610;19;20151;-75
2022/10/17 11:58:45;;;;;;;5.10;1.35;;;;;26.80;94869.00;;;;7387632;19;20176;-74
2022/10/17 12:01:26;;;;;;;2.67;1.42;;;;;27.00;94868.00;;;;7387759;19;20162;-74
2022/10/17 12:04:25;;;;;;;3.25;1.60;;;;;26.80;94860.00;;;;7380601;19;20152;-75
2022/10/17 12:07:09;;;;;;;5.13;1.40;;;;;27.70;94859.00;;;;7392054;19;20161;-75
2022/10/17 12:09:55;;;;;;;4.63;1.65;;;;;28.00;94859.00;;;;7392390;19;20615;-74
2022/10/17 12:12:26;;;;;;;3.22;1.50;;;;;28.00;94866.00;;;;7397516;19;20148;-76
2022/10/17 12:15:19;;;;;;;2.63;1.60;;;;;28.20;94855.00;;;;7399693;19;20203;-75
2022/10/17 12:17:57;;;;;;;3.05;1.50;;;;;28.90;94864.00;;;;7396423;19;20160;-76
2022/10/17 12:20:33;;;;;;;4.35;1.75;;;;;29.30;94858.00;;;;7398424;19;20615;-74
2022/10/17 12:23:10;;;;;;;9.77;1.95;;;;;28.20;94859.00;;;;7396124;19;20212;-76
2022/10/17 12:25:53;;;;;;;6.47;1.63;;;;;28.40;94861.00;;;;7396550;19;20152;-76
2022/10/17 12:28:39;;;;;;;5.85;1.55;;;;;27.30;94859.00;;;;7395178;19;20646;-75
2022/10/17 12:31:20;;;;;;;4.80;1.63;;;;;27.90;94865.00;;;;7398073;19;20152;-76
2022/10/17 12:33:49;;;;;;;3.53;2.00;;;;;27.00;94865.00;;;;7398062;19;20539;-75
2022/10/17 12:36:27;;;;;;;11.50;1.80;;;;;27.00;94870.00;;;;7397575;19;20659;-76
2022/10/17 12:39:10;;;;;;;5.13;1.90;;;;;27.00;94871.00;;;;7395726;19;20204;-76
2022/10/17 12:41:54;;;;;;;6.05;2.03;;;;;25.90;94875.00;;;;7396389;19;20171;-76
2022/10/17 12:44:24;;;;;;;4.80;1.80;;;;;25.80;94874.00;;;;7397517;19;20150;-76
2022/10/17 12:47:08;;;;;;;3.60;1.55;;;;;25.80;94878.00;;;;7398977;19;20507;-73
2022/10/17 12:49:37;;;;;;;2.40;1.48;;;;;25.50;94872.00;;;;7341248;19;20133;-75
2022/10/17 12:52:21;;;;;;;3.53;1.60;;;;;25.90;94873.00;;;;7394538;19;20179;-74
2022/10/17 12:54:59;;;;;;;4.05;1.42;;;;;26.20;94875.00;;;;7311754;19;20152;-74
2022/10/17 12:58:00;;;;;;;5.18;1.50;;;;;26.30;94874.00;;;;7393748;19;20178;-75
2022/10/17 13:00:35;;;;;;;4.65;1.50;;;;;26.30;94884.00;;;;7394922;19;20152;-75
2022/10/17 13:03:33;;;;;;;9.38;2.17;;;;;25.20;94891.00;;;;7398492;19;20136;-75
2022/10/17 13:06:06;;;;;;;7.65;1.73;;;;;24.30;94897.00;;;;7396282;19;20141;-75
2022/10/17 13:08:46;;;;;;;6.05;1.83;;;;;24.90;94891.00;;;;7385018;19;20152;-74
2022/10/17 13:11:25;;;;;;;5.70;1.60;;;;;25.00;94898.00;;;;7397087;19;20612;-75